sensor_id;sensor_type;location;lat;lon;timestamp;P1;durP1;ratioP1;P2;durP2;ratioP2
45208;SDS011;30951;43.994;26.260;2023-06-22T00:00:54;13.00;;;11.48;;
45208;SDS011;30951;43.994;26.260;2023-06-22T00:03:20;14.43;;;11.80;;
45208;SDS011;30951;43.994;26.260;2023-06-22T00:05:47;13.60;;;10.48;;
45208;SDS011;30951;43.994;26.260;2023-06-22T00:08:13;14.02;;;11.93;;
45208;SDS011;30951;43.994;26.260;2023-06-22T00:10:39;15.40;;;11.75;;
45208;SDS011;30951;43.994;26.260;2023-06-22T00:13:06;18.73;;;11.40;;
45208;SDS011;30951;43.994;26.260;2023-06-22T00:15:32;13.75;;;9.93;;
45208;SDS011;30951;43.994;26.260;2023-06-22T00:17:57;16.13;;;10.75;;
45208;SDS011;30951;43.994;26.260;2023-06-22T00:20:23;14.75;;;10.18;;
45208;SDS011;30951;43.994;26.260;2023-06-22T00:23:02;13.02;;;9.73;;
45208;SDS011;30951;43.994;26.260;2023-06-22T00:25:33;11.43;;;9.98;;
45208;SDS011;30951;43.994;26.260;2023-06-22T00:27:59;11.32;;;9.68;;
45208;SDS011;30951;43.994;26.260;2023-06-22T00:30:24;12.43;;;9.90;;
45208;SDS011;30951;43.994;26.260;2023-06-22T00:32:50;17.33;;;10.40;;
45208;SDS011;30951;43.994;26.260;2023-06-22T00:35:15;12.10;;;10.15;;
45208;SDS011;30951;43.994;26.260;2023-06-22T00:37:41;13.32;;;10.27;;
45208;SDS011;30951;43.994;26.260;2023-06-22T00:40:08;12.32;;;9.80;;
45208;SDS011;30951;43.994;26.260;2023-06-22T00:42:40;12.20;;;10.13;;
45208;SDS011;30951;43.994;26.260;2023-06-22T00:45:06;12.50;;;9.93;;
45208;SDS011;30951;43.994;26.260;2023-06-22T00:47:34;10.73;;;9.60;;
45208;SDS011;30951;43.994;26.260;2023-06-22T00:49:59;12.27;;;10.30;;
45208;SDS011;30951;43.994;26.260;2023-06-22T00:52:25;11.07;;;9.80;;
45208;SDS011;30951;43.994;26.260;2023-06-22T00:54:59;16.38;;;10.02;;
45208;SDS011;30951;43.994;26.260;2023-06-22T00:57:26;11.90;;;9.98;;
45208;SDS011;30951;43.994;26.260;2023-06-22T00:59:53;13.02;;;9.57;;
45208;SDS011;30951;43.994;26.260;2023-06-22T01:02:19;13.02;;;9.70;;
45208;SDS011;30951;43.994;26.260;2023-06-22T01:04:44;15.55;;;10.60;;
45208;SDS011;30951;43.994;26.260;2023-06-22T01:10:07;15.15;;;9.85;;
45208;SDS011;30951;43.994;26.260;2023-06-22T01:12:42;17.45;;;11.75;;
45208;SDS011;30951;43.994;26.260;2023-06-22T01:15:19;16.00;;;11.63;;
45208;SDS011;30951;43.994;26.260;2023-06-22T01:17:48;13.18;;;10.82;;
45208;SDS011;30951;43.994;26.260;2023-06-22T01:20:14;16.17;;;10.50;;
45208;SDS011;30951;43.994;26.260;2023-06-22T01:22:46;13.85;;;10.85;;
45208;SDS011;30951;43.994;26.260;2023-06-22T01:26:05;12.25;;;10.55;;
45208;SDS011;30951;43.994;26.260;2023-06-22T01:30:56;11.32;;;10.13;;
45208;SDS011;30951;43.994;26.260;2023-06-22T01:33:32;14.70;;;11.05;;
45208;SDS011;30951;43.994;26.260;2023-06-22T01:35:58;13.27;;;11.40;;
45208;SDS011;30951;43.994;26.260;2023-06-22T01:38:25;16.77;;;13.70;;
45208;SDS011;30951;43.994;26.260;2023-06-22T01:40:50;15.20;;;13.05;;
45208;SDS011;30951;43.994;26.260;2023-06-22T01:43:16;16.52;;;13.20;;
45208;SDS011;30951;43.994;26.260;2023-06-22T01:45:42;18.73;;;12.27;;
45208;SDS011;30951;43.994;26.260;2023-06-22T01:48:07;17.45;;;13.07;;
45208;SDS011;30951;43.994;26.260;2023-06-22T01:50:33;15.75;;;12.55;;
45208;SDS011;30951;43.994;26.260;2023-06-22T01:52:58;16.02;;;12.75;;
45208;SDS011;30951;43.994;26.260;2023-06-22T01:55:24;14.15;;;12.18;;
45208;SDS011;30951;43.994;26.260;2023-06-22T01:57:49;18.67;;;12.30;;
45208;SDS011;30951;43.994;26.260;2023-06-22T02:00:18;16.30;;;12.75;;
45208;SDS011;30951;43.994;26.260;2023-06-22T02:07:44;15.52;;;12.73;;
45208;SDS011;30951;43.994;26.260;2023-06-22T02:10:12;15.38;;;13.25;;
45208;SDS011;30951;43.994;26.260;2023-06-22T02:12:39;21.58;;;14.73;;
45208;SDS011;30951;43.994;26.260;2023-06-22T02:15:06;28.50;;;18.17;;
45208;SDS011;30951;43.994;26.260;2023-06-22T02:17:32;24.92;;;17.90;;
45208;SDS011;30951;43.994;26.260;2023-06-22T02:19:58;24.88;;;18.98;;
45208;SDS011;30951;43.994;26.260;2023-06-22T02:22:24;21.77;;;17.17;;
45208;SDS011;30951;43.994;26.260;2023-06-22T02:24:49;23.63;;;15.43;;
45208;SDS011;30951;43.994;26.260;2023-06-22T02:27:15;21.13;;;15.55;;
45208;SDS011;30951;43.994;26.260;2023-06-22T02:29:40;16.80;;;14.10;;
45208;SDS011;30951;43.994;26.260;2023-06-22T02:32:06;19.58;;;12.48;;
45208;SDS011;30951;43.994;26.260;2023-06-22T02:34:32;19.45;;;12.77;;
45208;SDS011;30951;43.994;26.260;2023-06-22T02:36:58;15.32;;;11.98;;
45208;SDS011;30951;43.994;26.260;2023-06-22T02:39:27;16.90;;;11.50;;
45208;SDS011;30951;43.994;26.260;2023-06-22T02:41:53;13.98;;;11.45;;
45208;SDS011;30951;43.994;26.260;2023-06-22T02:44:19;18.77;;;12.55;;
45208;SDS011;30951;43.994;26.260;2023-06-22T02:46:46;16.67;;;14.02;;
45208;SDS011;30951;43.994;26.260;2023-06-22T02:49:12;15.45;;;12.70;;
45208;SDS011;30951;43.994;26.260;2023-06-22T02:51:38;18.50;;;13.75;;
45208;SDS011;30951;43.994;26.260;2023-06-22T02:54:07;18.48;;;14.43;;
45208;SDS011;30951;43.994;26.260;2023-06-22T02:56:32;22.73;;;14.68;;
45208;SDS011;30951;43.994;26.260;2023-06-22T02:58:58;18.52;;;14.02;;
45208;SDS011;30951;43.994;26.260;2023-06-22T03:01:29;21.20;;;15.88;;
45208;SDS011;30951;43.994;26.260;2023-06-22T03:04:03;17.10;;;14.73;;
45208;SDS011;30951;43.994;26.260;2023-06-22T03:06:29;23.08;;;15.80;;
45208;SDS011;30951;43.994;26.260;2023-06-22T03:08:59;26.45;;;16.25;;
45208;SDS011;30951;43.994;26.260;2023-06-22T03:11:25;22.92;;;15.52;;
45208;SDS011;30951;43.994;26.260;2023-06-22T03:13:51;34.03;;;16.33;;
45208;SDS011;30951;43.994;26.260;2023-06-22T03:16:18;22.77;;;15.48;;
45208;SDS011;30951;43.994;26.260;2023-06-22T03:18:44;18.65;;;13.52;;
45208;SDS011;30951;43.994;26.260;2023-06-22T03:21:10;19.33;;;15.02;;
45208;SDS011;30951;43.994;26.260;2023-06-22T03:23:35;19.88;;;12.95;;
45208;SDS011;30951;43.994;26.260;2023-06-22T03:26:01;19.30;;;13.68;;
45208;SDS011;30951;43.994;26.260;2023-06-22T03:28:27;17.55;;;12.48;;
45208;SDS011;30951;43.994;26.260;2023-06-22T03:30:53;16.75;;;12.35;;
45208;SDS011;30951;43.994;26.260;2023-06-22T03:33:18;23.52;;;13.20;;
45208;SDS011;30951;43.994;26.260;2023-06-22T03:35:43;16.13;;;13.27;;
45208;SDS011;30951;43.994;26.260;2023-06-22T03:38:09;16.98;;;12.73;;
45208;SDS011;30951;43.994;26.260;2023-06-22T03:40:34;16.90;;;13.35;;
45208;SDS011;30951;43.994;26.260;2023-06-22T03:43:00;14.57;;;12.43;;
45208;SDS011;30951;43.994;26.260;2023-06-22T03:45:25;12.40;;;11.10;;
45208;SDS011;30951;43.994;26.260;2023-06-22T03:47:51;18.40;;;11.82;;
45208;SDS011;30951;43.994;26.260;2023-06-22T03:50:16;15.93;;;11.45;;
45208;SDS011;30951;43.994;26.260;2023-06-22T03:52:42;15.57;;;10.90;;
45208;SDS011;30951;43.994;26.260;2023-06-22T03:55:07;18.83;;;11.98;;
45208;SDS011;30951;43.994;26.260;2023-06-22T03:57:33;13.93;;;11.68;;
45208;SDS011;30951;43.994;26.260;2023-06-22T03:59:59;13.68;;;11.77;;
45208;SDS011;30951;43.994;26.260;2023-06-22T04:02:25;16.20;;;11.90;;
45208;SDS011;30951;43.994;26.260;2023-06-22T04:04:51;15.85;;;12.13;;
45208;SDS011;30951;43.994;26.260;2023-06-22T04:07:16;17.80;;;12.00;;
45208;SDS011;30951;43.994;26.260;2023-06-22T04:09:43;26.13;;;14.18;;
45208;SDS011;30951;43.994;26.260;2023-06-22T04:12:08;14.70;;;12.18;;
45208;SDS011;30951;43.994;26.260;2023-06-22T04:14:34;14.93;;;12.48;;
45208;SDS011;30951;43.994;26.260;2023-06-22T04:16:59;20.95;;;13.43;;
45208;SDS011;30951;43.994;26.260;2023-06-22T04:19:25;14.23;;;12.75;;
45208;SDS011;30951;43.994;26.260;2023-06-22T04:21:50;14.18;;;12.18;;
45208;SDS011;30951;43.994;26.260;2023-06-22T04:24:16;14.88;;;12.98;;
45208;SDS011;30951;43.994;26.260;2023-06-22T04:26:42;14.60;;;12.23;;
45208;SDS011;30951;43.994;26.260;2023-06-22T04:29:10;16.98;;;13.23;;
45208;SDS011;30951;43.994;26.260;2023-06-22T04:31:36;20.40;;;12.68;;
45208;SDS011;30951;43.994;26.260;2023-06-22T04:34:05;16.25;;;13.77;;
45208;SDS011;30951;43.994;26.260;2023-06-22T04:36:35;15.13;;;11.95;;
45208;SDS011;30951;43.994;26.260;2023-06-22T04:39:06;16.50;;;13.45;;
45208;SDS011;30951;43.994;26.260;2023-06-22T04:41:40;18.17;;;13.25;;
45208;SDS011;30951;43.994;26.260;2023-06-22T04:44:13;20.13;;;12.43;;
45208;SDS011;30951;43.994;26.260;2023-06-22T04:46:46;16.58;;;13.02;;
45208;SDS011;30951;43.994;26.260;2023-06-22T04:49:19;18.60;;;12.48;;
45208;SDS011;30951;43.994;26.260;2023-06-22T04:51:45;18.67;;;13.32;;
45208;SDS011;30951;43.994;26.260;2023-06-22T04:54:11;19.75;;;13.48;;
45208;SDS011;30951;43.994;26.260;2023-06-22T04:56:36;16.70;;;13.23;;
45208;SDS011;30951;43.994;26.260;2023-06-22T04:59:02;16.23;;;13.55;;
45208;SDS011;30951;43.994;26.260;2023-06-22T05:01:28;13.82;;;12.30;;
45208;SDS011;30951;43.994;26.260;2023-06-22T05:03:56;14.68;;;12.65;;
45208;SDS011;30951;43.994;26.260;2023-06-22T05:06:22;17.52;;;13.35;;
45208;SDS011;30951;43.994;26.260;2023-06-22T05:08:54;14.18;;;11.02;;
45208;SDS011;30951;43.994;26.260;2023-06-22T05:11:24;14.65;;;12.40;;
45208;SDS011;30951;43.994;26.260;2023-06-22T05:13:53;15.20;;;12.18;;
45208;SDS011;30951;43.994;26.260;2023-06-22T05:16:19;14.50;;;12.15;;
45208;SDS011;30951;43.994;26.260;2023-06-22T05:18:52;17.23;;;12.63;;
45208;SDS011;30951;43.994;26.260;2023-06-22T05:21:25;12.75;;;11.45;;
45208;SDS011;30951;43.994;26.260;2023-06-22T05:23:52;15.18;;;11.18;;
45208;SDS011;30951;43.994;26.260;2023-06-22T05:26:19;13.15;;;11.27;;
45208;SDS011;30951;43.994;26.260;2023-06-22T05:28:45;15.82;;;11.05;;
45208;SDS011;30951;43.994;26.260;2023-06-22T05:31:14;12.35;;;9.82;;
45208;SDS011;30951;43.994;26.260;2023-06-22T05:33:44;15.60;;;10.25;;
45208;SDS011;30951;43.994;26.260;2023-06-22T05:36:09;13.00;;;9.90;;
45208;SDS011;30951;43.994;26.260;2023-06-22T05:38:35;13.48;;;9.50;;
45208;SDS011;30951;43.994;26.260;2023-06-22T05:41:01;11.65;;;9.57;;
45208;SDS011;30951;43.994;26.260;2023-06-22T05:43:27;11.10;;;9.40;;
45208;SDS011;30951;43.994;26.260;2023-06-22T05:45:53;12.65;;;10.48;;
45208;SDS011;30951;43.994;26.260;2023-06-22T05:48:18;12.65;;;9.70;;
45208;SDS011;30951;43.994;26.260;2023-06-22T05:50:44;11.80;;;9.73;;
45208;SDS011;30951;43.994;26.260;2023-06-22T05:53:10;13.90;;;9.60;;
45208;SDS011;30951;43.994;26.260;2023-06-22T05:55:35;9.98;;;8.85;;
45208;SDS011;30951;43.994;26.260;2023-06-22T05:58:01;9.15;;;8.20;;
45208;SDS011;30951;43.994;26.260;2023-06-22T06:00:26;9.13;;;7.72;;
45208;SDS011;30951;43.994;26.260;2023-06-22T06:02:52;7.93;;;7.13;;
45208;SDS011;30951;43.994;26.260;2023-06-22T06:05:17;7.90;;;6.35;;
45208;SDS011;30951;43.994;26.260;2023-06-22T06:07:44;7.30;;;6.13;;
45208;SDS011;30951;43.994;26.260;2023-06-22T06:10:10;8.02;;;6.35;;
45208;SDS011;30951;43.994;26.260;2023-06-22T06:12:36;8.90;;;6.40;;
45208;SDS011;30951;43.994;26.260;2023-06-22T06:15:02;9.00;;;5.32;;
45208;SDS011;30951;43.994;26.260;2023-06-22T06:17:28;6.20;;;5.60;;
45208;SDS011;30951;43.994;26.260;2023-06-22T06:19:53;6.97;;;5.45;;
45208;SDS011;30951;43.994;26.260;2023-06-22T06:22:19;10.13;;;5.53;;
45208;SDS011;30951;43.994;26.260;2023-06-22T06:24:46;7.57;;;4.97;;
45208;SDS011;30951;43.994;26.260;2023-06-22T06:27:13;7.22;;;5.32;;
45208;SDS011;30951;43.994;26.260;2023-06-22T06:29:38;8.80;;;4.93;;
45208;SDS011;30951;43.994;26.260;2023-06-22T06:32:04;7.78;;;4.88;;
45208;SDS011;30951;43.994;26.260;2023-06-22T06:34:29;5.30;;;4.78;;
45208;SDS011;30951;43.994;26.260;2023-06-22T06:36:55;6.22;;;4.68;;
45208;SDS011;30951;43.994;26.260;2023-06-22T06:39:20;7.10;;;5.35;;
45208;SDS011;30951;43.994;26.260;2023-06-22T06:41:46;6.25;;;4.97;;
45208;SDS011;30951;43.994;26.260;2023-06-22T06:44:12;5.78;;;5.28;;
45208;SDS011;30951;43.994;26.260;2023-06-22T06:46:37;6.47;;;5.50;;
45208;SDS011;30951;43.994;26.260;2023-06-22T06:49:03;6.07;;;5.15;;
45208;SDS011;30951;43.994;26.260;2023-06-22T06:51:28;5.43;;;4.90;;
45208;SDS011;30951;43.994;26.260;2023-06-22T06:53:54;6.78;;;5.40;;
45208;SDS011;30951;43.994;26.260;2023-06-22T06:56:20;7.07;;;5.22;;
45208;SDS011;30951;43.994;26.260;2023-06-22T06:58:45;7.80;;;5.28;;
45208;SDS011;30951;43.994;26.260;2023-06-22T07:01:11;8.40;;;5.10;;
45208;SDS011;30951;43.994;26.260;2023-06-22T07:03:38;6.00;;;5.45;;
45208;SDS011;30951;43.994;26.260;2023-06-22T07:06:03;6.03;;;5.28;;
45208;SDS011;30951;43.994;26.260;2023-06-22T07:08:29;5.28;;;4.53;;
45208;SDS011;30951;43.994;26.260;2023-06-22T07:10:54;5.35;;;4.80;;
45208;SDS011;30951;43.994;26.260;2023-06-22T07:13:20;4.97;;;4.47;;
45208;SDS011;30951;43.994;26.260;2023-06-22T07:15:46;5.72;;;4.32;;
45208;SDS011;30951;43.994;26.260;2023-06-22T07:18:11;5.63;;;4.93;;
45208;SDS011;30951;43.994;26.260;2023-06-22T07:20:37;6.57;;;4.53;;
45208;SDS011;30951;43.994;26.260;2023-06-22T07:23:04;4.82;;;4.25;;
45208;SDS011;30951;43.994;26.260;2023-06-22T07:25:30;5.72;;;4.60;;
45208;SDS011;30951;43.994;26.260;2023-06-22T07:28:05;7.25;;;4.72;;
45208;SDS011;30951;43.994;26.260;2023-06-22T07:30:32;8.90;;;4.60;;
45208;SDS011;30951;43.994;26.260;2023-06-22T07:32:58;7.60;;;4.55;;
45208;SDS011;30951;43.994;26.260;2023-06-22T07:35:28;5.07;;;4.57;;
45208;SDS011;30951;43.994;26.260;2023-06-22T07:37:54;7.47;;;4.30;;
45208;SDS011;30951;43.994;26.260;2023-06-22T07:40:20;4.60;;;4.20;;
45208;SDS011;30951;43.994;26.260;2023-06-22T07:42:45;4.85;;;4.10;;
45208;SDS011;30951;43.994;26.260;2023-06-22T07:45:13;8.13;;;4.43;;
45208;SDS011;30951;43.994;26.260;2023-06-22T07:47:39;4.28;;;3.83;;
45208;SDS011;30951;43.994;26.260;2023-06-22T07:50:04;4.25;;;3.90;;
45208;SDS011;30951;43.994;26.260;2023-06-22T07:52:30;4.75;;;4.07;;
45208;SDS011;30951;43.994;26.260;2023-06-22T07:54:56;5.40;;;4.10;;
45208;SDS011;30951;43.994;26.260;2023-06-22T07:57:21;4.80;;;4.30;;
45208;SDS011;30951;43.994;26.260;2023-06-22T07:59:47;4.40;;;3.92;;
45208;SDS011;30951;43.994;26.260;2023-06-22T08:02:13;4.22;;;3.83;;
45208;SDS011;30951;43.994;26.260;2023-06-22T08:04:38;4.75;;;4.00;;
45208;SDS011;30951;43.994;26.260;2023-06-22T08:07:04;3.63;;;3.28;;
45208;SDS011;30951;43.994;26.260;2023-06-22T08:09:31;5.63;;;3.75;;
45208;SDS011;30951;43.994;26.260;2023-06-22T08:11:57;4.00;;;3.70;;
45208;SDS011;30951;43.994;26.260;2023-06-22T08:14:23;3.85;;;3.45;;
45208;SDS011;30951;43.994;26.260;2023-06-22T08:16:50;3.83;;;3.33;;
45208;SDS011;30951;43.994;26.260;2023-06-22T08:19:15;7.65;;;3.53;;
45208;SDS011;30951;43.994;26.260;2023-06-22T08:21:41;4.88;;;3.50;;
45208;SDS011;30951;43.994;26.260;2023-06-22T08:24:07;4.20;;;3.30;;
45208;SDS011;30951;43.994;26.260;2023-06-22T08:26:33;4.13;;;3.72;;
45208;SDS011;30951;43.994;26.260;2023-06-22T08:29:02;3.78;;;3.47;;
45208;SDS011;30951;43.994;26.260;2023-06-22T08:31:28;3.33;;;3.10;;
45208;SDS011;30951;43.994;26.260;2023-06-22T08:33:53;3.42;;;3.13;;
45208;SDS011;30951;43.994;26.260;2023-06-22T08:36:19;3.28;;;2.97;;
45208;SDS011;30951;43.994;26.260;2023-06-22T08:38:45;2.92;;;2.72;;
45208;SDS011;30951;43.994;26.260;2023-06-22T08:41:16;3.65;;;2.95;;
45208;SDS011;30951;43.994;26.260;2023-06-22T08:43:43;5.07;;;3.40;;
45208;SDS011;30951;43.994;26.260;2023-06-22T08:46:09;2.75;;;2.55;;
45208;SDS011;30951;43.994;26.260;2023-06-22T08:48:35;3.10;;;2.60;;
45208;SDS011;30951;43.994;26.260;2023-06-22T08:51:01;2.92;;;2.72;;
45208;SDS011;30951;43.994;26.260;2023-06-22T08:53:27;3.28;;;2.92;;
45208;SDS011;30951;43.994;26.260;2023-06-22T08:55:53;6.35;;;3.00;;
45208;SDS011;30951;43.994;26.260;2023-06-22T08:58:18;3.35;;;3.05;;
45208;SDS011;30951;43.994;26.260;2023-06-22T09:00:45;3.17;;;2.85;;
45208;SDS011;30951;43.994;26.260;2023-06-22T09:03:10;3.13;;;2.83;;
45208;SDS011;30951;43.994;26.260;2023-06-22T09:05:37;2.90;;;2.70;;
45208;SDS011;30951;43.994;26.260;2023-06-22T09:08:02;2.88;;;2.67;;
45208;SDS011;30951;43.994;26.260;2023-06-22T09:10:28;2.42;;;2.22;;
45208;SDS011;30951;43.994;26.260;2023-06-22T09:12:54;4.18;;;2.70;;
45208;SDS011;30951;43.994;26.260;2023-06-22T09:15:19;2.90;;;2.60;;
45208;SDS011;30951;43.994;26.260;2023-06-22T09:17:45;3.42;;;3.13;;
45208;SDS011;30951;43.994;26.260;2023-06-22T09:20:11;3.10;;;2.90;;
45208;SDS011;30951;43.994;26.260;2023-06-22T09:22:37;7.18;;;3.15;;
45208;SDS011;30951;43.994;26.260;2023-06-22T09:25:03;3.83;;;3.53;;
45208;SDS011;30951;43.994;26.260;2023-06-22T09:27:29;3.83;;;3.53;;
45208;SDS011;30951;43.994;26.260;2023-06-22T09:29:55;3.60;;;3.30;;
45208;SDS011;30951;43.994;26.260;2023-06-22T09:32:23;3.33;;;3.03;;
45208;SDS011;30951;43.994;26.260;2023-06-22T09:34:49;3.50;;;3.20;;
45208;SDS011;30951;43.994;26.260;2023-06-22T09:37:15;3.17;;;2.97;;
45208;SDS011;30951;43.994;26.260;2023-06-22T09:39:40;3.33;;;3.05;;
45208;SDS011;30951;43.994;26.260;2023-06-22T09:42:06;3.90;;;3.05;;
45208;SDS011;30951;43.994;26.260;2023-06-22T09:44:31;3.05;;;2.85;;
45208;SDS011;30951;43.994;26.260;2023-06-22T09:46:57;4.47;;;2.80;;
45208;SDS011;30951;43.994;26.260;2023-06-22T09:49:22;2.95;;;2.45;;
45208;SDS011;30951;43.994;26.260;2023-06-22T09:51:48;3.00;;;2.70;;
45208;SDS011;30951;43.994;26.260;2023-06-22T09:54:14;4.00;;;3.60;;
45208;SDS011;30951;43.994;26.260;2023-06-22T09:56:40;3.85;;;3.30;;
45208;SDS011;30951;43.994;26.260;2023-06-22T09:59:05;6.38;;;3.50;;
45208;SDS011;30951;43.994;26.260;2023-06-22T10:01:31;4.20;;;3.80;;
45208;SDS011;30951;43.994;26.260;2023-06-22T10:03:56;3.60;;;3.25;;
45208;SDS011;30951;43.994;26.260;2023-06-22T10:06:22;6.05;;;2.97;;
45208;SDS011;30951;43.994;26.260;2023-06-22T10:08:50;3.75;;;3.45;;
45208;SDS011;30951;43.994;26.260;2023-06-22T10:11:16;12.68;;;4.05;;
45208;SDS011;30951;43.994;26.260;2023-06-22T10:13:41;4.50;;;4.10;;
45208;SDS011;30951;43.994;26.260;2023-06-22T10:16:07;3.45;;;3.00;;
45208;SDS011;30951;43.994;26.260;2023-06-22T10:18:32;5.88;;;3.00;;
45208;SDS011;30951;43.994;26.260;2023-06-22T10:20:58;3.53;;;3.22;;
45208;SDS011;30951;43.994;26.260;2023-06-22T10:23:23;4.00;;;3.60;;
45208;SDS011;30951;43.994;26.260;2023-06-22T10:25:49;4.50;;;3.05;;
45208;SDS011;30951;43.994;26.260;2023-06-22T10:28:14;5.38;;;3.22;;
45208;SDS011;30951;43.994;26.260;2023-06-22T10:30:40;5.07;;;3.47;;
45208;SDS011;30951;43.994;26.260;2023-06-22T10:33:07;3.42;;;3.22;;
45208;SDS011;30951;43.994;26.260;2023-06-22T10:35:33;4.65;;;3.20;;
45208;SDS011;30951;43.994;26.260;2023-06-22T10:37:58;4.25;;;3.42;;
45208;SDS011;30951;43.994;26.260;2023-06-22T10:40:24;3.42;;;3.13;;
45208;SDS011;30951;43.994;26.260;2023-06-22T10:42:49;3.90;;;3.55;;
45208;SDS011;30951;43.994;26.260;2023-06-22T10:45:15;7.47;;;3.88;;
45208;SDS011;30951;43.994;26.260;2023-06-22T10:47:41;4.43;;;3.30;;
45208;SDS011;30951;43.994;26.260;2023-06-22T10:50:07;3.60;;;3.30;;
45208;SDS011;30951;43.994;26.260;2023-06-22T10:52:33;3.78;;;3.47;;
45208;SDS011;30951;43.994;26.260;2023-06-22T10:54:59;3.90;;;3.33;;
45208;SDS011;30951;43.994;26.260;2023-06-22T10:57:24;4.97;;;3.50;;
45208;SDS011;30951;43.994;26.260;2023-06-22T10:59:50;4.97;;;3.35;;
45208;SDS011;30951;43.994;26.260;2023-06-22T11:02:15;6.18;;;3.58;;
45208;SDS011;30951;43.994;26.260;2023-06-22T11:04:40;5.43;;;3.80;;
45208;SDS011;30951;43.994;26.260;2023-06-22T11:07:06;3.90;;;3.60;;
45208;SDS011;30951;43.994;26.260;2023-06-22T11:09:31;3.40;;;3.10;;
45208;SDS011;30951;43.994;26.260;2023-06-22T11:11:57;6.00;;;3.00;;
45208;SDS011;30951;43.994;26.260;2023-06-22T11:14:24;3.90;;;3.50;;
45208;SDS011;30951;43.994;26.260;2023-06-22T11:16:50;3.42;;;3.13;;
45208;SDS011;30951;43.994;26.260;2023-06-22T11:19:15;5.53;;;3.58;;
45208;SDS011;30951;43.994;26.260;2023-06-22T11:21:41;3.83;;;3.53;;
45208;SDS011;30951;43.994;26.260;2023-06-22T11:24:06;3.15;;;2.90;;
45208;SDS011;30951;43.994;26.260;2023-06-22T11:26:32;3.72;;;3.40;;
45208;SDS011;30951;43.994;26.260;2023-06-22T11:28:58;3.65;;;3.42;;
45208;SDS011;30951;43.994;26.260;2023-06-22T11:31:24;3.60;;;3.40;;
45208;SDS011;30951;43.994;26.260;2023-06-22T11:33:50;4.60;;;3.13;;
45208;SDS011;30951;43.994;26.260;2023-06-22T11:36:15;5.22;;;3.38;;
45208;SDS011;30951;43.994;26.260;2023-06-22T11:38:44;3.67;;;3.38;;
45208;SDS011;30951;43.994;26.260;2023-06-22T11:41:10;3.65;;;3.35;;
45208;SDS011;30951;43.994;26.260;2023-06-22T11:43:35;7.15;;;3.42;;
45208;SDS011;30951;43.994;26.260;2023-06-22T11:46:02;4.43;;;3.60;;
45208;SDS011;30951;43.994;26.260;2023-06-22T11:48:28;3.60;;;3.30;;
45208;SDS011;30951;43.994;26.260;2023-06-22T11:50:54;6.50;;;3.08;;
45208;SDS011;30951;43.994;26.260;2023-06-22T11:53:20;3.30;;;3.08;;
45208;SDS011;30951;43.994;26.260;2023-06-22T11:55:46;3.63;;;3.30;;
45208;SDS011;30951;43.994;26.260;2023-06-22T11:58:12;3.60;;;3.22;;
45208;SDS011;30951;43.994;26.260;2023-06-22T12:00:38;3.83;;;3.53;;
45208;SDS011;30951;43.994;26.260;2023-06-22T12:06:25;3.67;;;3.38;;
45208;SDS011;30951;43.994;26.260;2023-06-22T12:08:50;3.70;;;3.40;;
45208;SDS011;30951;43.994;26.260;2023-06-22T12:11:16;3.78;;;3.47;;
45208;SDS011;30951;43.994;26.260;2023-06-22T12:13:41;21.60;;;3.65;;
45208;SDS011;30951;43.994;26.260;2023-06-22T12:16:07;4.20;;;3.38;;
45208;SDS011;30951;43.994;26.260;2023-06-22T12:18:32;3.72;;;3.42;;
45208;SDS011;30951;43.994;26.260;2023-06-22T12:20:58;8.65;;;3.63;;
45208;SDS011;30951;43.994;26.260;2023-06-22T12:23:23;3.63;;;3.33;;
45208;SDS011;30951;43.994;26.260;2023-06-22T12:25:49;3.72;;;3.40;;
45208;SDS011;30951;43.994;26.260;2023-06-22T12:28:14;3.47;;;3.15;;
45208;SDS011;30951;43.994;26.260;2023-06-22T12:30:40;9.13;;;3.10;;
45208;SDS011;30951;43.994;26.260;2023-06-22T12:33:05;3.60;;;3.30;;
45208;SDS011;30951;43.994;26.260;2023-06-22T12:35:31;3.85;;;3.40;;
45208;SDS011;30951;43.994;26.260;2023-06-22T12:37:56;3.88;;;3.58;;
45208;SDS011;30951;43.994;26.260;2023-06-22T12:40:22;4.30;;;3.90;;
45208;SDS011;30951;43.994;26.260;2023-06-22T12:42:47;5.25;;;3.58;;
45208;SDS011;30951;43.994;26.260;2023-06-22T12:45:13;7.55;;;3.92;;
45208;SDS011;30951;43.994;26.260;2023-06-22T12:47:38;4.15;;;3.50;;
45208;SDS011;30951;43.994;26.260;2023-06-22T12:50:04;11.75;;;3.70;;
45208;SDS011;30951;43.994;26.260;2023-06-22T12:52:30;4.32;;;3.88;;
45208;SDS011;30951;43.994;26.260;2023-06-22T12:54:59;4.38;;;3.55;;
45208;SDS011;30951;43.994;26.260;2023-06-22T12:57:24;4.30;;;3.90;;
45208;SDS011;30951;43.994;26.260;2023-06-22T12:59:50;3.45;;;3.17;;
45208;SDS011;30951;43.994;26.260;2023-06-22T13:02:16;4.50;;;3.60;;
45208;SDS011;30951;43.994;26.260;2023-06-22T13:04:41;4.75;;;3.58;;
45208;SDS011;30951;43.994;26.260;2023-06-22T13:07:08;8.50;;;3.80;;
45208;SDS011;30951;43.994;26.260;2023-06-22T13:09:35;4.13;;;3.63;;
45208;SDS011;30951;43.994;26.260;2023-06-22T13:12:01;4.18;;;3.55;;
45208;SDS011;30951;43.994;26.260;2023-06-22T13:14:27;4.30;;;3.78;;
45208;SDS011;30951;43.994;26.260;2023-06-22T13:16:52;4.35;;;3.70;;
45208;SDS011;30951;43.994;26.260;2023-06-22T13:19:18;4.60;;;3.70;;
45208;SDS011;30951;43.994;26.260;2023-06-22T13:21:43;4.68;;;3.70;;
45208;SDS011;30951;43.994;26.260;2023-06-22T13:24:09;7.90;;;3.42;;
45208;SDS011;30951;43.994;26.260;2023-06-22T13:26:34;3.75;;;3.38;;
45208;SDS011;30951;43.994;26.260;2023-06-22T13:29:00;7.68;;;3.75;;
45208;SDS011;30951;43.994;26.260;2023-06-22T13:31:25;4.28;;;3.78;;
45208;SDS011;30951;43.994;26.260;2023-06-22T13:33:51;3.75;;;3.28;;
45208;SDS011;30951;43.994;26.260;2023-06-22T13:36:18;4.00;;;3.28;;
45208;SDS011;30951;43.994;26.260;2023-06-22T13:38:43;3.38;;;3.13;;
45208;SDS011;30951;43.994;26.260;2023-06-22T13:41:09;3.92;;;3.47;;
45208;SDS011;30951;43.994;26.260;2023-06-22T13:43:35;4.88;;;3.70;;
45208;SDS011;30951;43.994;26.260;2023-06-22T13:46:00;3.60;;;3.38;;
45208;SDS011;30951;43.994;26.260;2023-06-22T13:48:26;3.95;;;3.50;;
45208;SDS011;30951;43.994;26.260;2023-06-22T13:50:53;5.40;;;3.78;;
45208;SDS011;30951;43.994;26.260;2023-06-22T13:53:19;7.45;;;3.60;;
45208;SDS011;30951;43.994;26.260;2023-06-22T13:55:44;6.70;;;3.70;;
45208;SDS011;30951;43.994;26.260;2023-06-22T13:58:10;3.80;;;3.50;;
45208;SDS011;30951;43.994;26.260;2023-06-22T14:00:35;4.18;;;3.78;;
45208;SDS011;30951;43.994;26.260;2023-06-22T14:03:01;3.63;;;3.40;;
45208;SDS011;30951;43.994;26.260;2023-06-22T14:05:26;5.50;;;3.60;;
45208;SDS011;30951;43.994;26.260;2023-06-22T14:07:51;5.05;;;4.60;;
45208;SDS011;30951;43.994;26.260;2023-06-22T14:10:17;7.50;;;3.90;;
45208;SDS011;30951;43.994;26.260;2023-06-22T14:12:42;4.30;;;3.75;;
45208;SDS011;30951;43.994;26.260;2023-06-22T14:15:08;7.75;;;4.43;;
45208;SDS011;30951;43.994;26.260;2023-06-22T14:17:33;4.30;;;3.90;;
45208;SDS011;30951;43.994;26.260;2023-06-22T14:19:59;4.60;;;4.22;;
45208;SDS011;30951;43.994;26.260;2023-06-22T14:22:24;4.32;;;3.92;;
45208;SDS011;30951;43.994;26.260;2023-06-22T14:24:52;4.90;;;3.55;;
45208;SDS011;30951;43.994;26.260;2023-06-22T14:27:17;4.05;;;3.75;;
45208;SDS011;30951;43.994;26.260;2023-06-22T14:29:43;3.75;;;3.38;;
45208;SDS011;30951;43.994;26.260;2023-06-22T14:32:08;4.07;;;3.45;;
45208;SDS011;30951;43.994;26.260;2023-06-22T14:34:34;4.10;;;3.70;;